RYR77FZ LDZA-LIRN
Flight info
| Callsign | RYR77FZ |
|---|---|
| Flight time | 2h 6m |
| Altitude | 36000 |
| Route | NIVES DCT ELGUS DCT XAMIT/N0441F350 DCT SUXUB DCT ERIKA |
| Aircraft | A320/M-SDE3FGHIRWY/LB1 |
Departure
| Time | 2026-04-30 08:57 |
|---|---|
| Airport | Zagreb Franjo Tuđman International Airport (LDZA) |
Arrival
| Time | 2026-04-30 11:03 |
|---|---|
| Airport | Naples International Airport (LIRN) |
| Time | Latitude | Longitude | Altitude | Speed | Heading |
|---|---|---|---|---|---|
| 2026-04-30 08:34 | 45.74211 | 16.07867 | 361 ft | 0 kts | 141° |
| 2026-04-30 08:47 | 45.74223 | 16.07851 | 362 ft | 3 kts | 148° |
| 2026-04-30 08:47 | 45.74240 | 16.07839 | 362 ft | 3 kts | 168° |
| 2026-04-30 08:48 | 45.74257 | 16.07834 | 362 ft | 3 kts | 171° |
| 2026-04-30 08:48 | 45.74275 | 16.07832 | 362 ft | 3 kts | 196° |
| 2026-04-30 08:48 | 45.74290 | 16.07842 | 362 ft | 1 kts | 223° |
| 2026-04-30 08:51 | 45.74273 | 16.07807 | 364 ft | 7 kts | 241° |
| 2026-04-30 08:51 | 45.74247 | 16.07748 | 364 ft | 9 kts | 233° |
| 2026-04-30 08:51 | 45.74168 | 16.07615 | 358 ft | 19 kts | 228° |
| 2026-04-30 08:51 | 45.74082 | 16.07479 | 361 ft | 17 kts | 238° |
| 2026-04-30 08:52 | 45.74114 | 16.07340 | 362 ft | 15 kts | 314° |
| 2026-04-30 08:52 | 45.74199 | 16.07227 | 359 ft | 18 kts | 315° |
| 2026-04-30 08:52 | 45.74162 | 16.07069 | 360 ft | 20 kts | 227° |
| 2026-04-30 08:52 | 45.74066 | 16.06923 | 360 ft | 22 kts | 226° |
| 2026-04-30 08:53 | 45.73965 | 16.06771 | 362 ft | 20 kts | 227° |
| 2026-04-30 08:53 | 45.73871 | 16.06629 | 363 ft | 19 kts | 226° |
| 2026-04-30 08:53 | 45.73791 | 16.06510 | 360 ft | 16 kts | 226° |
| 2026-04-30 08:53 | 45.73720 | 16.06401 | 361 ft | 14 kts | 229° |
| 2026-04-30 08:54 | 45.73659 | 16.06308 | 362 ft | 12 kts | 226° |
| 2026-04-30 08:54 | 45.73586 | 16.06198 | 361 ft | 19 kts | 226° |
| 2026-04-30 08:54 | 45.73479 | 16.06037 | 363 ft | 25 kts | 227° |
| 2026-04-30 08:54 | 45.73354 | 16.05847 | 363 ft | 26 kts | 227° |
| 2026-04-30 08:55 | 45.73240 | 16.05669 | 363 ft | 23 kts | 227° |
| 2026-04-30 08:55 | 45.73137 | 16.05512 | 366 ft | 20 kts | 229° |
| 2026-04-30 08:55 | 45.73106 | 16.05344 | 364 ft | 17 kts | 292° |
| 2026-04-30 08:55 | 45.73187 | 16.05252 | 370 ft | 15 kts | 348° |
| 2026-04-30 08:56 | 45.73240 | 16.05279 | 371 ft | 0 kts | 44° |
| 2026-04-30 08:56 | 45.73306 | 16.05377 | 366 ft | 47 kts | 46° |
| 2026-04-30 08:56 | 45.73695 | 16.05967 | 368 ft | 113 kts | 46° |
| 2026-04-30 08:56 | 45.74347 | 16.06949 | 537 ft | 146 kts | 46° |
| 2026-04-30 08:57 | 45.74996 | 16.08061 | 1304 ft | 147 kts | 54° |
| 2026-04-30 08:57 | 45.75492 | 16.09367 | 2058 ft | 152 kts | 64° |
| 2026-04-30 08:57 | 45.75827 | 16.10825 | 2800 ft | 155 kts | 74° |
| 2026-04-30 08:57 | 45.75962 | 16.12354 | 3565 ft | 155 kts | 85° |
| 2026-04-30 08:58 | 45.75885 | 16.13973 | 4043 ft | 175 kts | 96° |
| 2026-04-30 08:58 | 45.75611 | 16.15796 | 4474 ft | 199 kts | 98° |
| 2026-04-30 08:58 | 45.75308 | 16.17818 | 4898 ft | 219 kts | 98° |
| 2026-04-30 08:58 | 45.74979 | 16.20017 | 5571 ft | 229 kts | 99° |
| 2026-04-30 08:59 | 45.74640 | 16.22260 | 6493 ft | 233 kts | 100° |
| 2026-04-30 08:59 | 45.74291 | 16.24562 | 6897 ft | 236 kts | 100° |
| 2026-04-30 08:59 | 45.73941 | 16.26862 | 6996 ft | 236 kts | 100° |
| 2026-04-30 08:59 | 45.73533 | 16.29146 | 7004 ft | 238 kts | 108° |
| 2026-04-30 09:00 | 45.72763 | 16.31205 | 7004 ft | 240 kts | 123° |
| 2026-04-30 09:00 | 45.71612 | 16.32964 | 7006 ft | 244 kts | 134° |
| 2026-04-30 09:00 | 45.70350 | 16.34632 | 7002 ft | 241 kts | 134° |
| 2026-04-30 09:00 | 45.69158 | 16.36179 | 7000 ft | 229 kts | 139° |
| 2026-04-30 09:01 | 45.67734 | 16.37151 | 6999 ft | 231 kts | 165° |
| 2026-04-30 09:01 | 45.66117 | 16.37043 | 7044 ft | 241 kts | 197° |
| 2026-04-30 09:01 | 45.64694 | 16.35717 | 7800 ft | 249 kts | 224° |
| 2026-04-30 09:01 | 45.63485 | 16.33920 | 8650 ft | 253 kts | 226° |
| 2026-04-30 09:02 | 45.60934 | 16.30024 | 9895 ft | 281 kts | 227° |
| 2026-04-30 09:02 | 45.59629 | 16.28024 | 10974 ft | 272 kts | 227° |
| 2026-04-30 09:02 | 45.58338 | 16.26049 | 11817 ft | 272 kts | 228° |
| 2026-04-30 09:03 | 45.57044 | 16.24076 | 12628 ft | 273 kts | 229° |
| 2026-04-30 09:03 | 45.55743 | 16.22094 | 13465 ft | 274 kts | 229° |
| 2026-04-30 09:03 | 45.54437 | 16.20109 | 14262 ft | 275 kts | 230° |
| 2026-04-30 09:03 | 45.53123 | 16.18115 | 14966 ft | 276 kts | 230° |
| 2026-04-30 09:04 | 45.51802 | 16.16109 | 15637 ft | 280 kts | 230° |
| 2026-04-30 09:04 | 45.50433 | 16.14027 | 16122 ft | 289 kts | 230° |
| 2026-04-30 09:04 | 45.49055 | 16.11940 | 16910 ft | 289 kts | 230° |
| 2026-04-30 09:04 | 45.47679 | 16.09861 | 17678 ft | 288 kts | 230° |
| 2026-04-30 09:05 | 45.46264 | 16.07713 | 17921 ft | 309 kts | 230° |
| 2026-04-30 09:05 | 45.44746 | 16.05400 | 18071 ft | 332 kts | 230° |
| 2026-04-30 09:05 | 45.43148 | 16.02970 | 18205 ft | 353 kts | 229° |
| 2026-04-30 09:05 | 45.41388 | 16.00307 | 18435 ft | 370 kts | 229° |
| 2026-04-30 09:06 | 45.39602 | 15.97623 | 18950 ft | 376 kts | 229° |
| 2026-04-30 09:06 | 45.37789 | 15.94904 | 19498 ft | 381 kts | 229° |
| 2026-04-30 09:06 | 45.35911 | 15.92227 | 20055 ft | 386 kts | 222° |
| 2026-04-30 09:06 | 45.34469 | 15.90715 | 20425 ft | 391 kts | 213° |
| 2026-04-30 09:07 | 45.32006 | 15.89027 | 20990 ft | 397 kts | 200° |
| 2026-04-30 09:07 | 45.29299 | 15.88152 | 21549 ft | 402 kts | 186° |
| 2026-04-30 09:07 | 45.26503 | 15.88168 | 22111 ft | 405 kts | 172° |
| 2026-04-30 09:07 | 45.23717 | 15.88882 | 22671 ft | 408 kts | 171° |
| 2026-04-30 09:08 | 45.20866 | 15.88975 | 23196 ft | 413 kts | 186° |
| 2026-04-30 09:08 | 45.18046 | 15.88150 | 23744 ft | 416 kts | 199° |
| 2026-04-30 09:08 | 45.15348 | 15.86648 | 24250 ft | 418 kts | 205° |
| 2026-04-30 09:08 | 45.12665 | 15.85030 | 24730 ft | 421 kts | 204° |
| 2026-04-30 09:09 | 45.09952 | 15.83458 | 25229 ft | 423 kts | 204° |
| 2026-04-30 09:09 | 45.07214 | 15.81906 | 25702 ft | 425 kts | 204° |
| 2026-04-30 09:09 | 45.04465 | 15.80359 | 26175 ft | 426 kts | 204° |
| 2026-04-30 09:09 | 45.01705 | 15.78802 | 26635 ft | 428 kts | 205° |
| 2026-04-30 09:10 | 44.98935 | 15.77227 | 27085 ft | 430 kts | 205° |
| 2026-04-30 09:10 | 44.96158 | 15.75638 | 27519 ft | 432 kts | 205° |
| 2026-04-30 09:10 | 44.93372 | 15.74037 | 27956 ft | 433 kts | 206° |
| 2026-04-30 09:10 | 44.90580 | 15.72433 | 28384 ft | 435 kts | 206° |
| 2026-04-30 09:11 | 44.87768 | 15.70823 | 28818 ft | 436 kts | 206° |
| 2026-04-30 09:11 | 44.84953 | 15.69215 | 29221 ft | 438 kts | 206° |
| 2026-04-30 09:11 | 44.82123 | 15.67601 | 29636 ft | 439 kts | 206° |
| 2026-04-30 09:11 | 44.79287 | 15.65982 | 30038 ft | 441 kts | 207° |
| 2026-04-30 09:12 | 44.76439 | 15.64363 | 30415 ft | 442 kts | 207° |
| 2026-04-30 09:12 | 44.73581 | 15.62742 | 30746 ft | 444 kts | 207° |
| 2026-04-30 09:12 | 44.70715 | 15.61115 | 31050 ft | 445 kts | 207° |
| 2026-04-30 09:12 | 44.67840 | 15.59483 | 31343 ft | 446 kts | 207° |
| 2026-04-30 09:13 | 44.64956 | 15.57847 | 31625 ft | 448 kts | 207° |
| 2026-04-30 09:13 | 44.62068 | 15.56212 | 31934 ft | 448 kts | 207° |
| 2026-04-30 09:13 | 44.59180 | 15.54579 | 32340 ft | 446 kts | 207° |
| 2026-04-30 09:13 | 44.56308 | 15.52956 | 32754 ft | 445 kts | 207° |
| 2026-04-30 09:14 | 44.53439 | 15.51334 | 33143 ft | 444 kts | 207° |
| 2026-04-30 09:14 | 44.50579 | 15.49721 | 33534 ft | 443 kts | 207° |
| 2026-04-30 09:14 | 44.47722 | 15.48114 | 33929 ft | 442 kts | 208° |
| 2026-04-30 09:14 | 44.44876 | 15.46516 | 34315 ft | 441 kts | 208° |
| 2026-04-30 09:15 | 44.42032 | 15.44919 | 34618 ft | 440 kts | 208° |
| 2026-04-30 09:15 | 44.39189 | 15.43326 | 34893 ft | 440 kts | 208° |
| 2026-04-30 09:15 | 44.36349 | 15.41733 | 35157 ft | 440 kts | 208° |
| 2026-04-30 09:15 | 44.33504 | 15.40138 | 35422 ft | 440 kts | 207° |
| 2026-04-30 09:16 | 44.30658 | 15.38547 | 35681 ft | 440 kts | 207° |
| 2026-04-30 09:16 | 44.27892 | 15.37003 | 36137 ft | 428 kts | 208° |
| 2026-04-30 09:16 | 44.25176 | 15.35494 | 36225 ft | 412 kts | 208° |
| 2026-04-30 09:16 | 44.22561 | 15.34044 | 36244 ft | 399 kts | 208° |
| 2026-04-30 09:17 | 44.17472 | 15.31201 | 36244 ft | 392 kts | 208° |
| 2026-04-30 09:17 | 44.12422 | 15.28365 | 36244 ft | 391 kts | 208° |
| 2026-04-30 09:18 | 44.07375 | 15.25552 | 36244 ft | 390 kts | 208° |
| 2026-04-30 09:18 | 44.02337 | 15.22762 | 36243 ft | 390 kts | 208° |
| 2026-04-30 09:19 | 43.97303 | 15.19983 | 36235 ft | 389 kts | 209° |
| 2026-04-30 09:19 | 43.92270 | 15.17211 | 36226 ft | 389 kts | 209° |
| 2026-04-30 09:20 | 43.87245 | 15.14439 | 36225 ft | 388 kts | 209° |
| 2026-04-30 09:20 | 43.82225 | 15.11676 | 36217 ft | 388 kts | 209° |
| 2026-04-30 09:21 | 43.77198 | 15.08917 | 36202 ft | 389 kts | 209° |
| 2026-04-30 09:21 | 43.72158 | 15.06153 | 36200 ft | 390 kts | 210° |
| 2026-04-30 09:22 | 43.67109 | 15.03386 | 36205 ft | 390 kts | 210° |
| 2026-04-30 09:22 | 43.62056 | 15.00624 | 36211 ft | 391 kts | 210° |
| 2026-04-30 09:23 | 43.57002 | 14.97873 | 36211 ft | 390 kts | 210° |
| 2026-04-30 09:23 | 43.52128 | 14.94766 | 36213 ft | 383 kts | 216° |
| 2026-04-30 09:24 | 43.47427 | 14.91399 | 36216 ft | 383 kts | 216° |
| 2026-04-30 09:24 | 43.42704 | 14.88024 | 36214 ft | 382 kts | 216° |
| 2026-04-30 09:25 | 43.37956 | 14.84636 | 36212 ft | 382 kts | 216° |
| 2026-04-30 09:25 | 43.33279 | 14.81300 | 36209 ft | 381 kts | 216° |
| 2026-04-30 09:26 | 43.28393 | 14.78341 | 36208 ft | 387 kts | 210° |
| 2026-04-30 09:26 | 43.23345 | 14.75748 | 36207 ft | 387 kts | 210° |
| 2026-04-30 09:27 | 43.18299 | 14.73164 | 36207 ft | 387 kts | 210° |
| 2026-04-30 09:27 | 43.13254 | 14.70588 | 36205 ft | 387 kts | 210° |
| 2026-04-30 09:28 | 43.08218 | 14.68015 | 36184 ft | 386 kts | 210° |
| 2026-04-30 09:28 | 43.05705 | 14.66731 | 35746 ft | 385 kts | 210° |
| 2026-04-30 09:28 | 43.03195 | 14.65447 | 35253 ft | 385 kts | 210° |
| 2026-04-30 09:29 | 43.00690 | 14.64168 | 34772 ft | 384 kts | 210° |
| 2026-04-30 09:29 | 42.98193 | 14.62898 | 34307 ft | 383 kts | 211° |
| 2026-04-30 09:29 | 42.95696 | 14.61631 | 33763 ft | 382 kts | 211° |
| 2026-04-30 09:29 | 42.93203 | 14.60367 | 33195 ft | 382 kts | 210° |
| 2026-04-30 09:30 | 42.90780 | 14.58960 | 32620 ft | 371 kts | 220° |
| 2026-04-30 09:30 | 42.88606 | 14.57118 | 32088 ft | 367 kts | 222° |
| 2026-04-30 09:30 | 42.86482 | 14.55293 | 31843 ft | 355 kts | 222° |
| 2026-04-30 09:30 | 42.84411 | 14.53510 | 31200 ft | 349 kts | 222° |
| 2026-04-30 09:31 | 42.82385 | 14.51758 | 30580 ft | 342 kts | 222° |
| 2026-04-30 09:31 | 42.80394 | 14.50034 | 29929 ft | 336 kts | 222° |
| 2026-04-30 09:31 | 42.78440 | 14.48342 | 29223 ft | 330 kts | 222° |
| 2026-04-30 09:31 | 42.76519 | 14.46680 | 28531 ft | 325 kts | 222° |
| 2026-04-30 09:32 | 42.74627 | 14.45044 | 27862 ft | 319 kts | 222° |
| 2026-04-30 09:32 | 42.72766 | 14.43435 | 27213 ft | 315 kts | 222° |
| 2026-04-30 09:32 | 42.70932 | 14.41853 | 26583 ft | 310 kts | 221° |
| 2026-04-30 09:32 | 42.69124 | 14.40298 | 25980 ft | 306 kts | 221° |
| 2026-04-30 09:33 | 42.67335 | 14.38764 | 25391 ft | 302 kts | 221° |
| 2026-04-30 09:33 | 42.65571 | 14.37252 | 24817 ft | 298 kts | 221° |
| 2026-04-30 09:33 | 42.63854 | 14.35779 | 24261 ft | 294 kts | 221° |
| 2026-04-30 09:33 | 42.62112 | 14.34282 | 23683 ft | 291 kts | 221° |
| 2026-04-30 09:34 | 42.60437 | 14.32840 | 23068 ft | 287 kts | 221° |
| 2026-04-30 09:34 | 42.58762 | 14.31398 | 22468 ft | 284 kts | 221° |
| 2026-04-30 09:34 | 42.57104 | 14.29972 | 21884 ft | 281 kts | 220° |
| 2026-04-30 09:34 | 42.55462 | 14.28561 | 21303 ft | 278 kts | 220° |
| 2026-04-30 09:35 | 42.53831 | 14.27162 | 20746 ft | 276 kts | 220° |
| 2026-04-30 09:35 | 42.52211 | 14.25776 | 20200 ft | 274 kts | 219° |
| 2026-04-30 09:35 | 42.50601 | 14.24402 | 19660 ft | 273 kts | 219° |
| 2026-04-30 09:35 | 42.48996 | 14.23035 | 19158 ft | 271 kts | 219° |
| 2026-04-30 09:36 | 42.47410 | 14.21684 | 18672 ft | 268 kts | 219° |
| 2026-04-30 09:36 | 42.45813 | 14.20383 | 18133 ft | 268 kts | 214° |
| 2026-04-30 09:36 | 42.44122 | 14.19291 | 17578 ft | 270 kts | 208° |
| 2026-04-30 09:36 | 42.42347 | 14.18445 | 17060 ft | 272 kts | 201° |
| 2026-04-30 09:37 | 42.40502 | 14.17848 | 16568 ft | 273 kts | 195° |
| 2026-04-30 09:37 | 42.38621 | 14.17466 | 16095 ft | 273 kts | 193° |
| 2026-04-30 09:37 | 42.36743 | 14.17110 | 15637 ft | 272 kts | 193° |
| 2026-04-30 09:37 | 42.34878 | 14.16756 | 15167 ft | 270 kts | 193° |
| 2026-04-30 09:38 | 42.33016 | 14.16403 | 14834 ft | 270 kts | 192° |
| 2026-04-30 09:38 | 42.31157 | 14.16051 | 14610 ft | 269 kts | 192° |
| 2026-04-30 09:38 | 42.29307 | 14.15701 | 14356 ft | 268 kts | 192° |
| 2026-04-30 09:38 | 42.27462 | 14.15352 | 14231 ft | 267 kts | 192° |
| 2026-04-30 09:39 | 42.25619 | 14.15006 | 14237 ft | 268 kts | 192° |
| 2026-04-30 09:39 | 42.23772 | 14.14658 | 14234 ft | 268 kts | 192° |
| 2026-04-30 09:39 | 42.21924 | 14.14307 | 14237 ft | 268 kts | 192° |
| 2026-04-30 09:39 | 42.20077 | 14.13959 | 14232 ft | 266 kts | 192° |
| 2026-04-30 09:40 | 42.18265 | 14.13619 | 14228 ft | 261 kts | 192° |
| 2026-04-30 09:40 | 42.16494 | 14.13285 | 14233 ft | 260 kts | 193° |
| 2026-04-30 09:40 | 42.14701 | 14.12944 | 14225 ft | 260 kts | 192° |
| 2026-04-30 09:40 | 42.12906 | 14.12603 | 14228 ft | 260 kts | 192° |
| 2026-04-30 09:41 | 42.11116 | 14.12265 | 14220 ft | 260 kts | 192° |
| 2026-04-30 09:41 | 42.09326 | 14.11929 | 14223 ft | 259 kts | 192° |
| 2026-04-30 09:41 | 42.07541 | 14.11595 | 14222 ft | 259 kts | 192° |
| 2026-04-30 09:41 | 42.05759 | 14.11264 | 14217 ft | 259 kts | 192° |
| 2026-04-30 09:42 | 42.03968 | 14.10930 | 14214 ft | 260 kts | 193° |
| 2026-04-30 09:42 | 42.02181 | 14.10594 | 14210 ft | 259 kts | 192° |
| 2026-04-30 09:42 | 42.00399 | 14.10257 | 14213 ft | 258 kts | 193° |
| 2026-04-30 09:42 | 41.98620 | 14.09920 | 14210 ft | 259 kts | 192° |
| 2026-04-30 09:43 | 41.96833 | 14.09583 | 14212 ft | 259 kts | 193° |
| 2026-04-30 09:43 | 41.95046 | 14.09248 | 14211 ft | 259 kts | 192° |
| 2026-04-30 09:43 | 41.93263 | 14.08914 | 14202 ft | 258 kts | 192° |
| 2026-04-30 09:43 | 41.91481 | 14.08581 | 14199 ft | 259 kts | 192° |
| 2026-04-30 09:44 | 41.89695 | 14.08246 | 14195 ft | 259 kts | 192° |
| 2026-04-30 09:44 | 41.87914 | 14.07914 | 14194 ft | 258 kts | 192° |
| 2026-04-30 09:44 | 41.86133 | 14.07581 | 14191 ft | 258 kts | 192° |
| 2026-04-30 09:44 | 41.84358 | 14.07247 | 14185 ft | 258 kts | 193° |
| 2026-04-30 09:45 | 41.82580 | 14.06910 | 14183 ft | 258 kts | 193° |
| 2026-04-30 09:45 | 41.80809 | 14.06576 | 14187 ft | 257 kts | 192° |
| 2026-04-30 09:45 | 41.79034 | 14.06243 | 14186 ft | 258 kts | 192° |
| 2026-04-30 09:45 | 41.77255 | 14.05912 | 14172 ft | 258 kts | 192° |
| 2026-04-30 09:46 | 41.75477 | 14.05581 | 14176 ft | 258 kts | 193° |
| 2026-04-30 09:46 | 41.73707 | 14.05251 | 14074 ft | 256 kts | 193° |
| 2026-04-30 09:46 | 41.71945 | 14.04920 | 13785 ft | 255 kts | 193° |
| 2026-04-30 09:46 | 41.70188 | 14.04588 | 13477 ft | 255 kts | 192° |
| 2026-04-30 09:47 | 41.68440 | 14.04259 | 13210 ft | 252 kts | 192° |
| 2026-04-30 09:47 | 41.66703 | 14.03935 | 13156 ft | 252 kts | 192° |
| 2026-04-30 09:47 | 41.64962 | 14.03609 | 13156 ft | 253 kts | 192° |
| 2026-04-30 09:47 | 41.63218 | 14.03283 | 13154 ft | 253 kts | 192° |
| 2026-04-30 09:48 | 41.61475 | 14.02957 | 13153 ft | 253 kts | 192° |
| 2026-04-30 09:48 | 41.59733 | 14.02632 | 13152 ft | 253 kts | 192° |
| 2026-04-30 09:48 | 41.57991 | 14.02308 | 13150 ft | 253 kts | 192° |
| 2026-04-30 09:48 | 41.56274 | 14.01991 | 13141 ft | 251 kts | 192° |
| 2026-04-30 09:49 | 41.54552 | 14.01673 | 13141 ft | 249 kts | 192° |
| 2026-04-30 09:49 | 41.52840 | 14.01355 | 13140 ft | 248 kts | 192° |
| 2026-04-30 09:49 | 41.51127 | 14.01036 | 13138 ft | 248 kts | 192° |
| 2026-04-30 09:49 | 41.49417 | 14.00717 | 13132 ft | 249 kts | 192° |
| 2026-04-30 09:50 | 41.47704 | 14.00396 | 13130 ft | 248 kts | 192° |
| 2026-04-30 09:50 | 41.45995 | 14.00078 | 13133 ft | 248 kts | 192° |
| 2026-04-30 09:50 | 41.44287 | 13.99758 | 13132 ft | 248 kts | 192° |
| 2026-04-30 09:50 | 41.42579 | 13.99439 | 13130 ft | 248 kts | 192° |
| 2026-04-30 09:51 | 41.40870 | 13.99122 | 13132 ft | 248 kts | 192° |
| 2026-04-30 09:51 | 41.39163 | 13.98809 | 13126 ft | 248 kts | 192° |
| 2026-04-30 09:51 | 41.37455 | 13.98496 | 13128 ft | 248 kts | 192° |
| 2026-04-30 09:51 | 41.35748 | 13.98180 | 13128 ft | 248 kts | 192° |
| 2026-04-30 09:52 | 41.34039 | 13.97865 | 13128 ft | 248 kts | 192° |
| 2026-04-30 09:52 | 41.32334 | 13.97551 | 13128 ft | 247 kts | 192° |
| 2026-04-30 09:52 | 41.30604 | 13.97437 | 13127 ft | 251 kts | 181° |
| 2026-04-30 09:52 | 41.28864 | 13.97723 | 13130 ft | 254 kts | 170° |
| 2026-04-30 09:53 | 41.27168 | 13.98404 | 13128 ft | 256 kts | 160° |
| 2026-04-30 09:53 | 41.25519 | 13.99300 | 13129 ft | 256 kts | 160° |
| 2026-04-30 09:53 | 41.23878 | 14.00183 | 12923 ft | 254 kts | 161° |
| 2026-04-30 09:53 | 41.22245 | 14.01055 | 12636 ft | 252 kts | 160° |
| 2026-04-30 09:54 | 41.20624 | 14.01920 | 12337 ft | 251 kts | 160° |
| 2026-04-30 09:54 | 41.19010 | 14.02782 | 12053 ft | 249 kts | 160° |
| 2026-04-30 09:54 | 41.17409 | 14.03635 | 11759 ft | 247 kts | 159° |
| 2026-04-30 09:54 | 41.15816 | 14.04483 | 11480 ft | 246 kts | 159° |
| 2026-04-30 09:55 | 41.14769 | 14.05042 | 11299 ft | 245 kts | 159° |
| 2026-04-30 09:55 | 41.13193 | 14.05885 | 11028 ft | 243 kts | 158° |
| 2026-04-30 09:55 | 41.11629 | 14.06722 | 10741 ft | 242 kts | 158° |
| 2026-04-30 09:55 | 41.09565 | 14.07822 | 10346 ft | 241 kts | 158° |
| 2026-04-30 09:56 | 41.08017 | 14.08647 | 10175 ft | 239 kts | 158° |
| 2026-04-30 09:56 | 41.06472 | 14.09471 | 10130 ft | 240 kts | 158° |
| 2026-04-30 09:56 | 41.04921 | 14.10298 | 10138 ft | 241 kts | 158° |
| 2026-04-30 09:56 | 41.03868 | 14.10858 | 10142 ft | 241 kts | 158° |
| 2026-04-30 09:57 | 41.02311 | 14.11687 | 10137 ft | 242 kts | 158° |
| 2026-04-30 09:57 | 41.00771 | 14.12505 | 10136 ft | 242 kts | 158° |
| 2026-04-30 09:57 | 40.99209 | 14.13334 | 10134 ft | 242 kts | 158° |
| 2026-04-30 09:57 | 40.97626 | 14.14086 | 10136 ft | 242 kts | 167° |
| 2026-04-30 09:58 | 40.95956 | 14.14292 | 10132 ft | 241 kts | 184° |
| 2026-04-30 09:58 | 40.94322 | 14.13890 | 9877 ft | 238 kts | 201° |
| 2026-04-30 09:58 | 40.92854 | 14.12921 | 9536 ft | 235 kts | 218° |
| 2026-04-30 09:58 | 40.91657 | 14.11486 | 9198 ft | 231 kts | 233° |
| 2026-04-30 09:59 | 40.89824 | 14.08051 | 8560 ft | 227 kts | 238° |
| 2026-04-30 09:59 | 40.88018 | 14.04668 | 7963 ft | 224 kts | 237° |
| 2026-04-30 10:00 | 40.86235 | 14.01335 | 7364 ft | 220 kts | 238° |
| 2026-04-30 10:00 | 40.85358 | 13.99689 | 7072 ft | 218 kts | 238° |
| 2026-04-30 10:01 | 40.83626 | 13.96441 | 6511 ft | 214 kts | 238° |
| 2026-04-30 10:01 | 40.82768 | 13.94841 | 6216 ft | 213 kts | 238° |
| 2026-04-30 10:01 | 40.81913 | 13.93250 | 5918 ft | 212 kts | 238° |
| 2026-04-30 10:02 | 40.80218 | 13.90095 | 5416 ft | 209 kts | 238° |
| 2026-04-30 10:02 | 40.79381 | 13.88537 | 5162 ft | 208 kts | 238° |
| 2026-04-30 10:02 | 40.78546 | 13.86983 | 4865 ft | 207 kts | 238° |
| 2026-04-30 10:02 | 40.77715 | 13.85434 | 4548 ft | 207 kts | 238° |
| 2026-04-30 10:03 | 40.76888 | 13.83893 | 4241 ft | 206 kts | 238° |
| 2026-04-30 10:03 | 40.76065 | 13.82358 | 4003 ft | 203 kts | 238° |
| 2026-04-30 10:03 | 40.75241 | 13.80820 | 3990 ft | 206 kts | 238° |
| 2026-04-30 10:03 | 40.74412 | 13.79273 | 3987 ft | 207 kts | 238° |
| 2026-04-30 10:04 | 40.73576 | 13.77715 | 3984 ft | 212 kts | 237° |
| 2026-04-30 10:04 | 40.72716 | 13.76114 | 3984 ft | 215 kts | 237° |
| 2026-04-30 10:04 | 40.71850 | 13.74509 | 3987 ft | 215 kts | 237° |
| 2026-04-30 10:04 | 40.70939 | 13.72935 | 3984 ft | 217 kts | 226° |
| 2026-04-30 10:05 | 40.69610 | 13.71992 | 3984 ft | 223 kts | 193° |
| 2026-04-30 10:05 | 40.68066 | 13.72155 | 3985 ft | 228 kts | 158° |
| 2026-04-30 10:05 | 40.66712 | 13.73259 | 3986 ft | 231 kts | 146° |
| 2026-04-30 10:05 | 40.65419 | 13.74466 | 3993 ft | 231 kts | 146° |
| 2026-04-30 10:06 | 40.64108 | 13.75694 | 3988 ft | 232 kts | 144° |
| 2026-04-30 10:06 | 40.63044 | 13.77262 | 3983 ft | 232 kts | 115° |
| 2026-04-30 10:06 | 40.62724 | 13.79306 | 3988 ft | 229 kts | 82° |
| 2026-04-30 10:06 | 40.63216 | 13.81252 | 3985 ft | 224 kts | 53° |
| 2026-04-30 10:07 | 40.64114 | 13.82922 | 3986 ft | 224 kts | 51° |
| 2026-04-30 10:07 | 40.65020 | 13.84591 | 3980 ft | 224 kts | 51° |
| 2026-04-30 10:07 | 40.65923 | 13.86261 | 3985 ft | 224 kts | 51° |
| 2026-04-30 10:07 | 40.66824 | 13.87931 | 3981 ft | 223 kts | 51° |
| 2026-04-30 10:08 | 40.67720 | 13.89600 | 3982 ft | 223 kts | 51° |
| 2026-04-30 10:08 | 40.68611 | 13.91264 | 3985 ft | 222 kts | 52° |
| 2026-04-30 10:08 | 40.69500 | 13.92923 | 3984 ft | 222 kts | 52° |
| 2026-04-30 10:08 | 40.70389 | 13.94583 | 3985 ft | 221 kts | 52° |
| 2026-04-30 10:09 | 40.71275 | 13.96238 | 3986 ft | 221 kts | 52° |
| 2026-04-30 10:09 | 40.72161 | 13.97891 | 3985 ft | 221 kts | 52° |
| 2026-04-30 10:09 | 40.73047 | 13.99543 | 3990 ft | 220 kts | 52° |
| 2026-04-30 10:09 | 40.73931 | 14.01191 | 3994 ft | 220 kts | 52° |
| 2026-04-30 10:10 | 40.74815 | 14.02837 | 3989 ft | 220 kts | 52° |
| 2026-04-30 10:10 | 40.75698 | 14.04484 | 3993 ft | 220 kts | 52° |
| 2026-04-30 10:10 | 40.76575 | 14.06124 | 3866 ft | 218 kts | 52° |
| 2026-04-30 10:10 | 40.77428 | 14.07732 | 3591 ft | 216 kts | 52° |
| 2026-04-30 10:11 | 40.78287 | 14.09354 | 3385 ft | 215 kts | 52° |
| 2026-04-30 10:11 | 40.79154 | 14.10941 | 3169 ft | 211 kts | 51° |
| 2026-04-30 10:11 | 40.80037 | 14.12469 | 3037 ft | 208 kts | 53° |
| 2026-04-30 10:11 | 40.80857 | 14.13987 | 2988 ft | 197 kts | 54° |
| 2026-04-30 10:12 | 40.81625 | 14.15446 | 2889 ft | 191 kts | 54° |
| 2026-04-30 10:12 | 40.82385 | 14.16899 | 2655 ft | 195 kts | 55° |
| 2026-04-30 10:12 | 40.83161 | 14.18384 | 2360 ft | 197 kts | 56° |
| 2026-04-30 10:12 | 40.83942 | 14.19878 | 2063 ft | 199 kts | 56° |
| 2026-04-30 10:13 | 40.84734 | 14.21395 | 1747 ft | 201 kts | 56° |
| 2026-04-30 10:13 | 40.85517 | 14.22896 | 1431 ft | 195 kts | 57° |
| 2026-04-30 10:13 | 40.86269 | 14.24337 | 1131 ft | 186 kts | 56° |
| 2026-04-30 10:13 | 40.86975 | 14.25693 | 841 ft | 173 kts | 55° |
| 2026-04-30 10:14 | 40.87621 | 14.26952 | 590 ft | 158 kts | 57° |
| 2026-04-30 10:14 | 40.88156 | 14.28066 | 894 ft | 139 kts | 56° |
| 2026-04-30 10:14 | 40.89368 | 14.30359 | 2075 ft | 169 kts | 54° |
| 2026-04-30 10:15 | 40.90107 | 14.31724 | 2395 ft | 197 kts | 54° |
| 2026-04-30 10:15 | 40.90914 | 14.33243 | 3168 ft | 203 kts | 54° |
| 2026-04-30 10:15 | 40.91736 | 14.34775 | 4046 ft | 206 kts | 53° |
| 2026-04-30 10:15 | 40.92650 | 14.36253 | 4911 ft | 209 kts | 35° |
| 2026-04-30 10:16 | 40.94024 | 14.36809 | 5632 ft | 215 kts | 355° |
| 2026-04-30 10:16 | 40.95398 | 14.36032 | 5938 ft | 220 kts | 315° |
| 2026-04-30 10:16 | 40.96051 | 14.34235 | 6002 ft | 223 kts | 274° |
| 2026-04-30 10:17 | 40.95145 | 14.30303 | 6012 ft | 225 kts | 249° |
| 2026-04-30 10:17 | 40.93942 | 14.26487 | 6015 ft | 224 kts | 249° |
| 2026-04-30 10:17 | 40.93341 | 14.24588 | 6011 ft | 223 kts | 249° |
| 2026-04-30 10:18 | 40.92787 | 14.22679 | 6011 ft | 221 kts | 255° |
| 2026-04-30 10:18 | 40.92426 | 14.20706 | 6006 ft | 220 kts | 259° |
| 2026-04-30 10:18 | 40.92017 | 14.18754 | 6008 ft | 221 kts | 256° |
| 2026-04-30 10:19 | 40.91134 | 14.14881 | 6009 ft | 219 kts | 255° |
| 2026-04-30 10:19 | 40.90681 | 14.12962 | 6009 ft | 219 kts | 254° |
| 2026-04-30 10:19 | 40.90222 | 14.11044 | 6000 ft | 219 kts | 254° |
| 2026-04-30 10:19 | 40.89761 | 14.09130 | 6003 ft | 219 kts | 254° |
| 2026-04-30 10:20 | 40.89297 | 14.07220 | 6002 ft | 218 kts | 254° |
| 2026-04-30 10:20 | 40.88364 | 14.03403 | 5998 ft | 218 kts | 254° |
| 2026-04-30 10:20 | 40.87895 | 14.01498 | 6003 ft | 218 kts | 253° |
| 2026-04-30 10:21 | 40.87434 | 13.99624 | 6001 ft | 217 kts | 253° |
| 2026-04-30 10:21 | 40.86967 | 13.97724 | 5998 ft | 217 kts | 254° |
| 2026-04-30 10:21 | 40.86492 | 13.95831 | 5997 ft | 218 kts | 249° |
| 2026-04-30 10:21 | 40.85804 | 13.94044 | 5999 ft | 218 kts | 244° |
| 2026-04-30 10:22 | 40.85089 | 13.92274 | 5997 ft | 218 kts | 244° |
| 2026-04-30 10:22 | 40.84377 | 13.90508 | 5994 ft | 218 kts | 244° |
| 2026-04-30 10:22 | 40.83666 | 13.88742 | 5994 ft | 217 kts | 244° |
| 2026-04-30 10:22 | 40.82958 | 13.86980 | 5993 ft | 217 kts | 244° |
| 2026-04-30 10:23 | 40.82250 | 13.85217 | 5995 ft | 217 kts | 244° |
| 2026-04-30 10:23 | 40.81544 | 13.83462 | 5991 ft | 216 kts | 244° |
| 2026-04-30 10:23 | 40.80839 | 13.81706 | 5990 ft | 216 kts | 244° |
| 2026-04-30 10:23 | 40.80133 | 13.79960 | 5990 ft | 216 kts | 244° |
| 2026-04-30 10:24 | 40.79427 | 13.78214 | 5993 ft | 216 kts | 244° |
| 2026-04-30 10:24 | 40.78683 | 13.76497 | 5984 ft | 216 kts | 235° |
| 2026-04-30 10:24 | 40.77592 | 13.75123 | 5990 ft | 220 kts | 215° |
| 2026-04-30 10:24 | 40.76194 | 13.74289 | 5994 ft | 222 kts | 202° |
| 2026-04-30 10:25 | 40.74738 | 13.73610 | 5987 ft | 222 kts | 202° |
| 2026-04-30 10:25 | 40.73278 | 13.72926 | 5989 ft | 223 kts | 202° |
| 2026-04-30 10:25 | 40.71819 | 13.72240 | 5992 ft | 223 kts | 202° |
| 2026-04-30 10:25 | 40.70361 | 13.71554 | 5992 ft | 223 kts | 202° |
| 2026-04-30 10:26 | 40.68922 | 13.70878 | 5994 ft | 223 kts | 202° |
| 2026-04-30 10:26 | 40.67464 | 13.70190 | 5990 ft | 223 kts | 202° |
| 2026-04-30 10:26 | 40.66007 | 13.69502 | 5991 ft | 222 kts | 202° |
| 2026-04-30 10:26 | 40.64549 | 13.68815 | 5993 ft | 223 kts | 202° |
| 2026-04-30 10:27 | 40.63092 | 13.68127 | 5992 ft | 222 kts | 202° |
| 2026-04-30 10:27 | 40.61634 | 13.67441 | 5991 ft | 223 kts | 202° |
| 2026-04-30 10:27 | 40.60176 | 13.66757 | 5992 ft | 222 kts | 202° |
| 2026-04-30 10:27 | 40.58719 | 13.66074 | 5993 ft | 222 kts | 202° |
| 2026-04-30 10:28 | 40.57263 | 13.65393 | 5994 ft | 222 kts | 202° |
| 2026-04-30 10:28 | 40.55809 | 13.64707 | 5993 ft | 222 kts | 202° |
| 2026-04-30 10:28 | 40.54355 | 13.64022 | 5993 ft | 222 kts | 202° |
| 2026-04-30 10:28 | 40.52847 | 13.63613 | 5988 ft | 226 kts | 178° |
| 2026-04-30 10:29 | 40.51368 | 13.64303 | 5985 ft | 231 kts | 146° |
| 2026-04-30 10:29 | 40.50267 | 13.65836 | 5991 ft | 234 kts | 120° |
| 2026-04-30 10:29 | 40.49739 | 13.67843 | 5991 ft | 234 kts | 95° |
| 2026-04-30 10:29 | 40.49918 | 13.69943 | 5997 ft | 232 kts | 66° |
| 2026-04-30 10:30 | 40.50825 | 13.71634 | 5987 ft | 227 kts | 34° |
| 2026-04-30 10:30 | 40.52224 | 13.72480 | 5990 ft | 221 kts | 5° |
| 2026-04-30 10:30 | 40.53727 | 13.72369 | 5995 ft | 216 kts | 340° |
| 2026-04-30 10:30 | 40.55073 | 13.71529 | 5993 ft | 215 kts | 329° |
| 2026-04-30 10:31 | 40.56506 | 13.70963 | 5999 ft | 218 kts | 349° |
| 2026-04-30 10:31 | 40.57922 | 13.70417 | 5997 ft | 214 kts | 325° |
| 2026-04-30 10:31 | 40.59057 | 13.69167 | 5994 ft | 213 kts | 313° |
| 2026-04-30 10:31 | 40.60107 | 13.67780 | 5990 ft | 214 kts | 313° |
| 2026-04-30 10:32 | 40.61154 | 13.66395 | 5991 ft | 212 kts | 313° |
| 2026-04-30 10:32 | 40.62190 | 13.65024 | 5993 ft | 211 kts | 313° |
| 2026-04-30 10:32 | 40.63061 | 13.63491 | 5994 ft | 209 kts | 292° |
| 2026-04-30 10:32 | 40.63339 | 13.61635 | 5992 ft | 209 kts | 266° |
| 2026-04-30 10:33 | 40.62925 | 13.59813 | 5997 ft | 211 kts | 238° |
| 2026-04-30 10:33 | 40.61841 | 13.58523 | 5997 ft | 216 kts | 205° |
| 2026-04-30 10:33 | 40.60357 | 13.58265 | 5993 ft | 221 kts | 170° |
| 2026-04-30 10:33 | 40.58989 | 13.59186 | 5992 ft | 226 kts | 138° |
| 2026-04-30 10:34 | 40.57809 | 13.60570 | 5993 ft | 228 kts | 144° |
| 2026-04-30 10:34 | 40.56513 | 13.61763 | 5998 ft | 227 kts | 148° |
| 2026-04-30 10:34 | 40.55184 | 13.62889 | 5992 ft | 227 kts | 149° |
| 2026-04-30 10:34 | 40.53859 | 13.64021 | 5993 ft | 228 kts | 145° |
| 2026-04-30 10:35 | 40.52850 | 13.65606 | 5995 ft | 229 kts | 112° |
| 2026-04-30 10:35 | 40.52621 | 13.67656 | 5990 ft | 229 kts | 79° |
| 2026-04-30 10:35 | 40.53252 | 13.69528 | 5993 ft | 225 kts | 44° |
| 2026-04-30 10:35 | 40.54547 | 13.70573 | 5988 ft | 218 kts | 7° |
| 2026-04-30 10:36 | 40.56012 | 13.70405 | 5995 ft | 212 kts | 333° |
| 2026-04-30 10:36 | 40.57249 | 13.69370 | 5994 ft | 211 kts | 321° |
| 2026-04-30 10:36 | 40.58424 | 13.68203 | 5992 ft | 212 kts | 320° |
| 2026-04-30 10:36 | 40.59602 | 13.67033 | 5996 ft | 212 kts | 321° |
| 2026-04-30 10:37 | 40.60792 | 13.65881 | 5995 ft | 212 kts | 322° |
| 2026-04-30 10:37 | 40.61976 | 13.64764 | 5996 ft | 213 kts | 322° |
| 2026-04-30 10:37 | 40.63023 | 13.63426 | 5996 ft | 210 kts | 297° |
| 2026-04-30 10:37 | 40.63370 | 13.61597 | 5993 ft | 209 kts | 266° |
| 2026-04-30 10:38 | 40.62947 | 13.59784 | 5991 ft | 211 kts | 237° |
| 2026-04-30 10:38 | 40.61853 | 13.58505 | 5995 ft | 215 kts | 205° |
| 2026-04-30 10:38 | 40.60372 | 13.58247 | 5997 ft | 221 kts | 170° |
| 2026-04-30 10:38 | 40.58983 | 13.59118 | 5993 ft | 225 kts | 147° |
| 2026-04-30 10:39 | 40.57692 | 13.60301 | 5995 ft | 227 kts | 147° |
| 2026-04-30 10:39 | 40.56398 | 13.61486 | 5993 ft | 227 kts | 147° |
| 2026-04-30 10:39 | 40.55104 | 13.62671 | 5994 ft | 227 kts | 147° |
| 2026-04-30 10:39 | 40.53815 | 13.63862 | 5993 ft | 227 kts | 143° |
| 2026-04-30 10:40 | 40.52844 | 13.65484 | 5994 ft | 229 kts | 112° |
| 2026-04-30 10:40 | 40.52616 | 13.67534 | 5991 ft | 229 kts | 81° |
| 2026-04-30 10:40 | 40.53206 | 13.69439 | 5993 ft | 226 kts | 47° |
| 2026-04-30 10:40 | 40.54465 | 13.70575 | 5992 ft | 220 kts | 11° |
| 2026-04-30 10:41 | 40.55946 | 13.70511 | 5995 ft | 214 kts | 335° |
| 2026-04-30 10:41 | 40.57206 | 13.69509 | 5994 ft | 212 kts | 321° |
| 2026-04-30 10:41 | 40.58387 | 13.68340 | 5996 ft | 213 kts | 320° |
| 2026-04-30 10:41 | 40.59570 | 13.67161 | 5993 ft | 213 kts | 321° |
| 2026-04-30 10:42 | 40.60766 | 13.66002 | 5997 ft | 214 kts | 322° |
| 2026-04-30 10:42 | 40.61956 | 13.64877 | 5996 ft | 214 kts | 322° |
| 2026-04-30 10:42 | 40.63032 | 13.63558 | 5994 ft | 211 kts | 299° |
| 2026-04-30 10:42 | 40.63420 | 13.61710 | 5997 ft | 209 kts | 267° |
| 2026-04-30 10:43 | 40.63020 | 13.59883 | 5996 ft | 211 kts | 238° |
| 2026-04-30 10:43 | 40.61969 | 13.58584 | 5999 ft | 215 kts | 207° |
| 2026-04-30 10:43 | 40.60504 | 13.58237 | 5996 ft | 220 kts | 173° |
| 2026-04-30 10:43 | 40.59099 | 13.59032 | 5998 ft | 225 kts | 146° |
| 2026-04-30 10:44 | 40.57824 | 13.60232 | 5994 ft | 226 kts | 147° |
| 2026-04-30 10:44 | 40.56532 | 13.61411 | 5993 ft | 226 kts | 147° |
| 2026-04-30 10:44 | 40.55238 | 13.62583 | 5994 ft | 226 kts | 147° |
| 2026-04-30 10:44 | 40.53944 | 13.63760 | 5993 ft | 226 kts | 145° |
| 2026-04-30 10:45 | 40.52911 | 13.65301 | 5994 ft | 228 kts | 115° |
| 2026-04-30 10:45 | 40.52603 | 13.67327 | 5992 ft | 229 kts | 84° |
| 2026-04-30 10:45 | 40.53117 | 13.69275 | 5991 ft | 227 kts | 51° |
| 2026-04-30 10:45 | 40.54323 | 13.70527 | 5995 ft | 222 kts | 15° |
| 2026-04-30 10:46 | 40.55816 | 13.70625 | 5997 ft | 215 kts | 340° |
| 2026-04-30 10:46 | 40.57110 | 13.69688 | 5998 ft | 214 kts | 321° |
| 2026-04-30 10:46 | 40.58300 | 13.68514 | 6000 ft | 214 kts | 320° |
| 2026-04-30 10:46 | 40.59490 | 13.67330 | 5994 ft | 215 kts | 321° |
| 2026-04-30 10:47 | 40.60692 | 13.66166 | 5999 ft | 215 kts | 322° |
| 2026-04-30 10:47 | 40.61908 | 13.65019 | 5998 ft | 215 kts | 322° |
| 2026-04-30 10:47 | 40.63017 | 13.63727 | 5997 ft | 212 kts | 301° |
| 2026-04-30 10:47 | 40.63460 | 13.61916 | 5995 ft | 210 kts | 269° |
| 2026-04-30 10:48 | 40.63119 | 13.60067 | 5996 ft | 211 kts | 241° |
| 2026-04-30 10:48 | 40.62520 | 13.59063 | 5995 ft | 213 kts | 221° |
| 2026-04-30 10:48 | 40.61189 | 13.58233 | 5996 ft | 217 kts | 188° |
| 2026-04-30 10:48 | 40.59268 | 13.58870 | 5998 ft | 223 kts | 147° |
| 2026-04-30 10:49 | 40.58406 | 13.59670 | 5996 ft | 225 kts | 147° |
| 2026-04-30 10:49 | 40.56708 | 13.61232 | 5993 ft | 225 kts | 147° |
| 2026-04-30 10:49 | 40.55420 | 13.62409 | 5994 ft | 225 kts | 147° |
| 2026-04-30 10:49 | 40.54131 | 13.63580 | 5994 ft | 225 kts | 147° |
| 2026-04-30 10:50 | 40.53325 | 13.64483 | 5994 ft | 227 kts | 130° |
| 2026-04-30 10:50 | 40.52655 | 13.66309 | 5996 ft | 228 kts | 99° |
| 2026-04-30 10:50 | 40.52773 | 13.68398 | 5997 ft | 228 kts | 67° |
| 2026-04-30 10:50 | 40.53662 | 13.70047 | 5992 ft | 225 kts | 34° |
| 2026-04-30 10:51 | 40.55083 | 13.70766 | 5998 ft | 219 kts | 358° |
| 2026-04-30 10:51 | 40.56520 | 13.70278 | 5998 ft | 214 kts | 325° |
| 2026-04-30 10:51 | 40.57737 | 13.69142 | 5998 ft | 215 kts | 320° |
| 2026-04-30 10:51 | 40.58933 | 13.67953 | 5993 ft | 216 kts | 321° |
| 2026-04-30 10:52 | 40.60138 | 13.66774 | 5994 ft | 216 kts | 321° |
| 2026-04-30 10:52 | 40.61359 | 13.65620 | 5998 ft | 217 kts | 325° |
| 2026-04-30 10:52 | 40.62777 | 13.64988 | 5990 ft | 220 kts | 358° |
| 2026-04-30 10:52 | 40.64247 | 13.65522 | 6000 ft | 225 kts | 33° |
| 2026-04-30 10:53 | 40.65290 | 13.67044 | 6005 ft | 228 kts | 59° |
| 2026-04-30 10:53 | 40.66026 | 13.68893 | 5797 ft | 227 kts | 63° |
| 2026-04-30 10:53 | 40.66641 | 13.70803 | 5489 ft | 227 kts | 71° |
| 2026-04-30 10:53 | 40.67120 | 13.72778 | 5182 ft | 226 kts | 71° |
| 2026-04-30 10:54 | 40.67642 | 13.74726 | 4882 ft | 225 kts | 70° |
| 2026-04-30 10:54 | 40.68178 | 13.76654 | 4584 ft | 224 kts | 69° |
| 2026-04-30 10:54 | 40.68716 | 13.78574 | 4269 ft | 223 kts | 69° |
| 2026-04-30 10:54 | 40.69248 | 13.80487 | 3973 ft | 222 kts | 70° |
| 2026-04-30 10:55 | 40.69776 | 13.82390 | 3691 ft | 220 kts | 70° |
| 2026-04-30 10:55 | 40.70299 | 13.84279 | 3419 ft | 219 kts | 70° |
| 2026-04-30 10:55 | 40.70819 | 13.86157 | 3147 ft | 219 kts | 70° |
| 2026-04-30 10:55 | 40.71335 | 13.88035 | 3023 ft | 217 kts | 70° |
| 2026-04-30 10:56 | 40.71844 | 13.89897 | 2991 ft | 216 kts | 70° |
| 2026-04-30 10:56 | 40.72354 | 13.91764 | 2998 ft | 217 kts | 70° |
| 2026-04-30 10:56 | 40.72864 | 13.93632 | 2993 ft | 216 kts | 70° |
| 2026-04-30 10:56 | 40.73374 | 13.95502 | 3000 ft | 217 kts | 71° |
| 2026-04-30 10:57 | 40.73883 | 13.97367 | 2999 ft | 216 kts | 70° |
| 2026-04-30 10:57 | 40.74394 | 13.99233 | 2997 ft | 217 kts | 70° |
| 2026-04-30 10:57 | 40.74908 | 14.01109 | 3000 ft | 217 kts | 70° |
| 2026-04-30 10:57 | 40.75418 | 14.02975 | 2993 ft | 215 kts | 70° |
| 2026-04-30 10:58 | 40.76077 | 14.04753 | 3006 ft | 217 kts | 59° |
| 2026-04-30 10:58 | 40.76899 | 14.06419 | 2992 ft | 217 kts | 56° |
| 2026-04-30 10:58 | 40.77758 | 14.08062 | 3012 ft | 218 kts | 56° |
| 2026-04-30 10:58 | 40.78621 | 14.09705 | 2999 ft | 216 kts | 56° |
| 2026-04-30 10:59 | 40.79469 | 14.11322 | 3003 ft | 209 kts | 56° |
| 2026-04-30 10:59 | 40.80262 | 14.12838 | 3035 ft | 191 kts | 56° |
| 2026-04-30 10:59 | 40.80975 | 14.14201 | 3001 ft | 169 kts | 56° |
| 2026-04-30 10:59 | 40.81602 | 14.15399 | 2899 ft | 155 kts | 56° |
| 2026-04-30 11:00 | 40.82212 | 14.16566 | 2743 ft | 156 kts | 56° |
| 2026-04-30 11:00 | 40.82818 | 14.17725 | 2517 ft | 149 kts | 57° |
| 2026-04-30 11:00 | 40.83398 | 14.18835 | 2304 ft | 146 kts | 56° |
| 2026-04-30 11:00 | 40.83970 | 14.19926 | 2070 ft | 144 kts | 56° |
| 2026-04-30 11:01 | 40.84538 | 14.21010 | 1832 ft | 143 kts | 57° |
| 2026-04-30 11:01 | 40.85103 | 14.22091 | 1593 ft | 143 kts | 56° |
| 2026-04-30 11:01 | 40.85672 | 14.23156 | 1356 ft | 141 kts | 56° |
| 2026-04-30 11:01 | 40.86227 | 14.24222 | 1162 ft | 139 kts | 56° |
| 2026-04-30 11:02 | 40.86764 | 14.25251 | 941 ft | 134 kts | 57° |
| 2026-04-30 11:02 | 40.87272 | 14.26253 | 693 ft | 129 kts | 58° |
| 2026-04-30 11:02 | 40.87737 | 14.27248 | 477 ft | 129 kts | 58° |
| 2026-04-30 11:02 | 40.88202 | 14.28235 | 290 ft | 119 kts | 58° |
| 2026-04-30 11:03 | 40.88506 | 14.28876 | 272 ft | 41 kts | 58° |
| 2026-04-30 11:03 | 40.88646 | 14.29173 | 265 ft | 36 kts | 58° |
| 2026-04-30 11:03 | 40.88747 | 14.29384 | 259 ft | 17 kts | 57° |
| 2026-04-30 11:04 | 40.88647 | 14.29564 | 258 ft | 14 kts | 150° |
| 2026-04-30 11:04 | 40.88575 | 14.29523 | 260 ft | 11 kts | 231° |
| 2026-04-30 11:04 | 40.88540 | 14.29454 | 262 ft | 8 kts | 228° |
| 2026-04-30 11:04 | 40.88496 | 14.29387 | 264 ft | 12 kts | 233° |
| 2026-04-30 11:05 | 40.88439 | 14.29280 | 267 ft | 14 kts | 233° |
| 2026-04-30 11:05 | 40.88385 | 14.29187 | 269 ft | 13 kts | 232° |
| 2026-04-30 11:05 | 40.88327 | 14.29092 | 271 ft | 12 kts | 231° |
| 2026-04-30 11:05 | 40.88281 | 14.29013 | 273 ft | 10 kts | 232° |
| 2026-04-30 11:06 | 40.88228 | 14.28922 | 276 ft | 12 kts | 233° |
| 2026-04-30 11:06 | 40.88182 | 14.28843 | 278 ft | 9 kts | 233° |
| 2026-04-30 11:06 | 40.88142 | 14.28773 | 279 ft | 9 kts | 232° |
| 2026-04-30 11:06 | 40.88110 | 14.28717 | 281 ft | 6 kts | 232° |
| 2026-04-30 11:07 | 40.88059 | 14.28628 | 283 ft | 15 kts | 233° |
| 2026-04-30 11:07 | 40.87999 | 14.28527 | 287 ft | 13 kts | 227° |
| 2026-04-30 11:07 | 40.87944 | 14.28454 | 287 ft | 12 kts | 243° |
| 2026-04-30 11:07 | 40.87945 | 14.28343 | 289 ft | 11 kts | 277° |
| 2026-04-30 11:08 | 40.87954 | 14.28250 | 292 ft | 9 kts | 278° |
| 2026-04-30 11:08 | 40.87961 | 14.28176 | 292 ft | 7 kts | 277° |
| 2026-04-30 11:08 | 40.87947 | 14.28102 | 293 ft | 8 kts | 235° |
| 2026-04-30 11:08 | 40.87919 | 14.28054 | 297 ft | 5 kts | 231° |
| 2026-04-30 11:09 | 40.87896 | 14.28018 | 297 ft | 6 kts | 231° |
| 2026-04-30 11:09 | 40.87875 | 14.27992 | 297 ft | 3 kts | 201° |
| 2026-04-30 11:09 | 40.87836 | 14.28018 | 298 ft | 8 kts | 143° |
| 2026-04-30 11:09 | 40.87812 | 14.28044 | 300 ft | 0 kts | 141° |